Time;durP1;ratioP1;P1;durP2;ratioP2;P2;SDS_P1;SDS_P2;PMS_P1;PMS_P2;Temp;Humidity;BMP_temperature;BMP_pressure;BME280_temperature;BME280_humidity;BME280_pressure;Samples;Min_cycle;Max_cycle;Signal;HPM_P1;HPM_P2
2022/07/02 00:02:21;;;;;;;3.67;0.80;;;15.20;67.00;;;;;;5047635;28;20791;-59
2022/07/02 00:04:50;;;;;;;8.35;1.40;;;15.10;67.00;;;;;;5050391;28;20033;-58
2022/07/02 00:07:16;;;;;;;0.90;0.90;;;15.10;67.00;;;;;;5045947;28;20026;-60
2022/07/02 00:09:42;;;;;;;1.55;0.80;;;15.10;67.00;;;;;;5054932;28;20027;-59
2022/07/02 00:12:10;;;;;;;3.85;0.98;;;15.00;67.00;;;;;;5036925;28;20038;-59
2022/07/02 00:14:36;;;;;;;2.15;1.00;;;15.00;67.10;;;;;;5040058;28;20041;-59
2022/07/02 00:17:03;;;;;;;1.35;0.98;;;15.00;67.10;;;;;;5053283;28;20025;-59
2022/07/02 00:19:30;;;;;;;1.17;1.02;;;15.00;67.10;;;;;;5045489;28;20498;-60
2022/07/02 00:21:57;;;;;;;1.05;0.80;;;14.90;67.20;;;;;;5037260;28;20057;-59
2022/07/02 00:24:23;;;;;;;2.50;0.70;;;14.90;67.40;;;;;;5044830;28;20034;-60
2022/07/02 00:27:02;;;;;;;7.22;1.00;;;14.90;67.20;;;;;;5052807;28;20040;-59
2022/07/02 00:29:38;;;;;;;4.88;1.40;;;14.90;67.90;;;;;;5046082;28;20022;-60
2022/07/02 00:32:05;;;;;;;1.90;1.35;;;14.90;68.00;;;;;;5036281;28;20056;-59
2022/07/02 00:34:33;;;;;;;5.32;1.27;;;14.80;67.50;;;;;;5049546;28;20046;-60
2022/07/02 00:36:59;;;;;;;2.65;1.20;;;14.80;67.60;;;;;;5052435;28;20089;-60
2022/07/02 00:39:25;;;;;;;2.35;1.40;;;14.80;67.60;;;;;;5054367;28;20026;-59
2022/07/02 00:41:52;;;;;;;1.35;1.20;;;14.80;67.70;;;;;;5044010;28;20029;-60
2022/07/02 00:44:22;;;;;;;2.67;1.15;;;14.80;67.80;;;;;;5053796;28;20029;-59
2022/07/02 00:46:48;;;;;;;1.45;1.30;;;14.80;67.90;;;;;;5058344;28;20034;-60
2022/07/02 00:49:14;;;;;;;2.28;1.20;;;14.80;68.00;;;;;;5044675;28;20021;-60
2022/07/02 00:51:40;;;;;;;1.15;1.05;;;14.80;68.10;;;;;;5046679;28;20041;-59
2022/07/02 00:54:05;;;;;;;4.25;1.30;;;14.80;68.30;;;;;;5049047;28;20049;-60
2022/07/02 00:56:32;;;;;;;1.70;1.60;;;14.70;68.40;;;;;;5044636;28;20021;-59
2022/07/02 00:58:58;;;;;;;9.63;1.50;;;14.70;68.60;;;;;;5046187;28;20025;-60
2022/07/02 01:01:24;;;;;;;19.38;1.70;;;14.70;68.90;;;;;;5057377;28;20032;-60
2022/07/02 01:03:52;;;;;;;36.10;2.30;;;14.70;68.90;;;;;;5043180;28;20033;-59
2022/07/02 01:06:20;;;;;;;36.78;1.73;;;14.70;69.00;;;;;;5044995;28;20071;-59
2022/07/02 01:11:32;;;;;;;8.93;1.45;;;14.60;69.30;;;;;;5043648;28;20091;-60
2022/07/02 01:13:58;;;;;;;1.80;0.90;;;14.50;69.40;;;;;;5042931;28;20496;-60
2022/07/02 01:16:24;;;;;;;1.52;1.10;;;14.50;69.60;;;;;;5041549;28;20048;-61
2022/07/02 01:18:50;;;;;;;0.77;0.77;;;14.50;69.80;;;;;;5043261;28;20021;-59
2022/07/02 01:21:16;;;;;;;2.28;0.85;;;14.50;69.80;;;;;;5052995;28;20021;-60
2022/07/02 01:23:41;;;;;;;2.08;0.82;;;14.40;69.70;;;;;;5048453;28;20017;-60
2022/07/02 01:26:08;;;;;;;1.10;1.00;;;14.40;69.50;;;;;;5047557;28;20032;-60
2022/07/02 01:28:34;;;;;;;2.08;1.30;;;14.40;69.70;;;;;;5050990;28;20075;-61
2022/07/02 01:31:00;;;;;;;2.72;1.20;;;14.40;69.50;;;;;;5047688;28;20550;-59
2022/07/02 01:33:26;;;;;;;6.03;1.80;;;14.40;69.30;;;;;;5051731;28;20054;-60
2022/07/02 01:35:51;;;;;;;9.60;6.07;;;14.40;69.20;;;;;;5044870;28;20034;-60
2022/07/02 01:38:17;;;;;;;6.95;4.75;;;14.40;69.30;;;;;;5052366;28;20041;-59
2022/07/02 01:40:43;;;;;;;2.95;2.55;;;14.40;69.30;;;;;;5041858;28;20029;-60
2022/07/02 01:43:08;;;;;;;5.15;1.88;;;14.40;69.50;;;;;;5055735;28;20076;-60
2022/07/02 01:45:34;;;;;;;1.40;1.27;;;14.40;69.90;;;;;;5047841;28;20033;-60
2022/07/02 01:48:00;;;;;;;1.80;1.63;;;14.40;70.00;;;;;;5039462;28;20033;-59
2022/07/02 01:50:25;;;;;;;2.13;1.38;;;14.40;69.90;;;;;;5036547;28;20040;-59
2022/07/02 01:52:51;;;;;;;1.33;1.20;;;14.40;69.70;;;;;;5046094;28;20040;-60
2022/07/02 01:55:17;;;;;;;3.30;1.48;;;14.50;69.80;;;;;;5049387;28;20064;-61
2022/07/02 01:57:43;;;;;;;7.30;1.60;;;14.50;69.90;;;;;;5032064;28;20029;-61
2022/07/02 02:00:11;;;;;;;1.60;1.50;;;14.40;70.10;;;;;;5047265;28;20084;-59
2022/07/02 02:02:37;;;;;;;3.38;1.15;;;14.50;70.40;;;;;;5046663;28;20078;-60
2022/07/02 02:05:04;;;;;;;2.28;1.15;;;14.50;70.30;;;;;;5040711;28;20017;-61
2022/07/02 02:07:30;;;;;;;1.50;1.40;;;14.50;70.40;;;;;;5044445;28;20089;-59
2022/07/02 02:09:56;;;;;;;1.50;1.40;;;14.50;70.40;;;;;;5043847;28;20033;-60
2022/07/02 02:12:22;;;;;;;7.70;1.20;;;14.50;70.50;;;;;;5045021;28;20026;-59
2022/07/02 02:14:48;;;;;;;2.80;1.23;;;14.50;70.50;;;;;;5027969;28;20042;-59
2022/07/02 02:17:13;;;;;;;1.73;1.38;;;14.50;70.10;;;;;;5044187;28;20041;-58
2022/07/02 02:19:39;;;;;;;2.53;1.80;;;14.50;70.00;;;;;;5054807;28;20033;-59
2022/07/02 02:22:05;;;;;;;3.67;1.45;;;14.50;70.00;;;;;;5049104;28;20049;-59
2022/07/02 02:24:31;;;;;;;1.80;1.33;;;14.50;70.10;;;;;;5045854;28;20449;-62
2022/07/02 02:26:57;;;;;;;2.03;1.83;;;14.50;70.20;;;;;;5042971;28;20037;-59
2022/07/02 02:29:23;;;;;;;1.90;1.80;;;14.50;70.30;;;;;;5038655;28;20468;-58
2022/07/02 02:31:48;;;;;;;3.78;2.25;;;14.50;70.50;;;;;;5053697;28;20056;-60
2022/07/02 02:34:14;;;;;;;6.18;2.30;;;14.50;70.70;;;;;;5045598;28;20060;-59
2022/07/02 02:36:40;;;;;;;5.95;3.00;;;14.50;70.70;;;;;;5045173;28;20080;-59
2022/07/02 02:39:05;;;;;;;12.32;2.25;;;14.50;70.90;;;;;;5052073;28;20025;-59
2022/07/02 02:41:31;;;;;;;31.02;2.30;;;14.50;70.40;;;;;;5045589;28;20034;-58
2022/07/02 02:43:57;;;;;;;5.10;2.17;;;14.50;70.30;;;;;;5050131;28;20033;-60
2022/07/02 02:46:22;;;;;;;4.38;2.13;;;14.50;70.50;;;;;;5048699;28;20032;-60
2022/07/02 02:48:48;;;;;;;4.72;2.58;;;14.40;70.70;;;;;;5047626;28;20021;-59
2022/07/02 02:51:15;;;;;;;7.68;2.10;;;14.40;70.80;;;;;;5052656;28;20030;-60
2022/07/02 02:53:42;;;;;;;5.35;1.90;;;14.40;70.90;;;;;;5043388;28;20092;-59
2022/07/02 02:56:08;;;;;;;8.57;2.25;;;14.40;71.00;;;;;;5034880;28;20029;-59
2022/07/02 02:58:34;;;;;;;2.17;1.73;;;14.40;71.00;;;;;;5043970;28;20017;-60
2022/07/02 03:01:00;;;;;;;5.50;2.20;;;14.40;71.00;;;;;;5040220;28;20060;-59
2022/07/02 03:03:26;;;;;;;18.75;1.90;;;14.30;71.10;;;;;;5043019;28;20060;-61
2022/07/02 03:05:52;;;;;;;7.45;1.50;;;14.30;71.10;;;;;;5045742;28;20104;-59
2022/07/02 03:08:17;;;;;;;4.57;1.40;;;14.30;71.10;;;;;;5047378;28;20060;-60
2022/07/02 03:10:43;;;;;;;18.45;1.75;;;14.30;71.10;;;;;;5042955;28;20025;-60
2022/07/02 03:13:09;;;;;;;40.63;2.15;;;14.30;71.10;;;;;;5042928;28;20362;-59
2022/07/02 03:15:35;;;;;;;6.18;1.80;;;14.30;70.70;;;;;;5049907;28;20037;-59
2022/07/02 03:18:01;;;;;;;9.00;1.63;;;14.30;70.90;;;;;;5053797;28;20034;-60
2022/07/02 03:20:27;;;;;;;5.28;1.35;;;14.30;71.10;;;;;;5048643;28;20036;-59
2022/07/02 03:22:52;;;;;;;7.28;1.45;;;14.20;71.00;;;;;;5049400;28;20499;-59
2022/07/02 03:25:18;;;;;;;7.03;1.50;;;14.20;71.40;;;;;;5049978;28;20025;-59
2022/07/02 03:27:44;;;;;;;1.70;1.40;;;14.20;71.50;;;;;;5049810;28;20057;-60
2022/07/02 03:30:10;;;;;;;1.75;1.45;;;14.20;71.70;;;;;;5052826;28;20033;-59
2022/07/02 03:32:36;;;;;;;1.58;1.23;;;14.20;71.80;;;;;;5046124;28;20029;-59
2022/07/02 03:35:01;;;;;;;1.70;1.38;;;14.20;72.00;;;;;;5048508;28;20034;-60
2022/07/02 03:37:28;;;;;;;3.65;1.35;;;14.20;72.00;;;;;;5048653;28;20029;-61
2022/07/02 03:39:54;;;;;;;2.42;1.67;;;14.30;72.10;;;;;;5057652;28;20018;-59
2022/07/02 03:42:20;;;;;;;2.95;1.60;;;14.30;71.80;;;;;;5047900;28;20021;-59
2022/07/02 03:44:46;;;;;;;2.38;1.50;;;14.30;71.70;;;;;;5046363;28;20060;-59
2022/07/02 03:47:11;;;;;;;2.05;1.70;;;14.40;71.90;;;;;;5053507;28;20029;-60
2022/07/02 03:49:37;;;;;;;6.30;1.50;;;14.40;71.90;;;;;;5047740;28;20068;-58
2022/07/02 03:52:04;;;;;;;3.05;1.45;;;14.40;71.90;;;;;;5048703;28;20035;-59
2022/07/02 03:54:29;;;;;;;1.70;1.60;;;14.50;72.00;;;;;;5046715;28;20072;-60
2022/07/02 03:56:55;;;;;;;1.65;1.55;;;14.50;72.10;;;;;;5051987;28;20037;-60
2022/07/02 03:59:21;;;;;;;2.72;1.58;;;14.60;72.10;;;;;;5054123;28;20037;-60
2022/07/02 04:01:47;;;;;;;2.25;1.63;;;14.60;72.00;;;;;;5046255;28;20093;-59
2022/07/02 04:04:12;;;;;;;2.70;1.75;;;14.60;71.90;;;;;;5047093;28;20033;-60
2022/07/02 04:06:38;;;;;;;3.28;1.88;;;14.60;72.10;;;;;;5049365;28;20527;-59
2022/07/02 04:09:04;;;;;;;4.30;2.13;;;14.60;72.20;;;;;;5057533;28;20033;-60
2022/07/02 04:11:30;;;;;;;2.17;1.88;;;14.70;72.30;;;;;;5050402;28;20026;-60
2022/07/02 04:13:55;;;;;;;9.32;2.30;;;14.70;72.30;;;;;;5038999;28;20029;-59
2022/07/02 04:16:21;;;;;;;5.18;2.33;;;14.70;72.30;;;;;;5061060;28;20369;-60
2022/07/02 04:18:47;;;;;;;2.75;2.22;;;14.80;72.20;;;;;;5043753;28;20030;-60
2022/07/02 04:21:12;;;;;;;9.05;3.08;;;14.80;72.10;;;;;;5057297;28;20032;-61
2022/07/02 04:23:38;;;;;;;8.23;2.58;;;14.80;72.00;;;;;;5038345;28;20025;-60
2022/07/02 04:26:05;;;;;;;5.20;3.03;;;14.90;72.30;;;;;;5013100;28;20083;-59
2022/07/02 04:28:31;;;;;;;4.65;3.25;;;14.90;72.50;;;;;;5044991;28;20060;-59
2022/07/02 04:30:57;;;;;;;24.63;3.78;;;14.90;72.70;;;;;;5058240;28;20404;-60
2022/07/02 04:33:22;;;;;;;7.75;3.30;;;15.00;72.70;;;;;;5054046;28;20017;-59
2022/07/02 04:35:48;;;;;;;5.38;3.35;;;15.00;72.70;;;;;;5050444;28;20029;-60
2022/07/02 04:38:14;;;;;;;14.00;4.05;;;15.10;72.80;;;;;;5041613;28;20022;-61
2022/07/02 04:40:40;;;;;;;13.45;4.20;;;15.20;73.10;;;;;;5046547;28;20037;-60
2022/07/02 04:43:05;;;;;;;28.27;3.30;;;15.20;73.20;;;;;;5049948;28;20064;-61
2022/07/02 04:45:31;;;;;;;7.22;3.17;;;15.20;73.10;;;;;;5040532;28;20079;-59
2022/07/02 04:47:57;;;;;;;10.35;3.75;;;15.30;73.20;;;;;;5036501;28;20025;-61
2022/07/02 04:50:23;;;;;;;15.13;3.28;;;15.40;73.30;;;;;;5048424;28;20021;-60
2022/07/02 04:52:48;;;;;;;17.52;3.05;;;15.40;73.20;;;;;;5052414;28;20029;-60
2022/07/02 04:55:15;;;;;;;18.02;2.97;;;15.50;72.90;;;;;;5029751;28;20126;-60
2022/07/02 04:57:41;;;;;;;10.95;3.13;;;15.50;72.70;;;;;;5044726;28;20112;-60
2022/07/02 05:00:07;;;;;;;5.30;3.00;;;15.50;72.50;;;;;;5046232;28;20095;-60
2022/07/02 05:02:34;;;;;;;16.00;2.67;;;15.50;72.60;;;;;;5047957;28;20467;-60
2022/07/02 05:05:00;;;;;;;7.40;2.72;;;15.60;72.50;;;;;;5046312;28;20026;-58
2022/07/02 05:07:26;;;;;;;19.67;3.33;;;15.60;72.40;;;;;;5048931;28;20103;-60
2022/07/02 05:09:51;;;;;;;3.15;2.53;;;15.60;72.50;;;;;;5048791;28;20033;-59
2022/07/02 05:12:17;;;;;;;5.85;2.33;;;15.70;72.60;;;;;;5050275;28;20032;-60
2022/07/02 05:14:43;;;;;;;4.28;3.10;;;15.70;72.80;;;;;;5043356;28;20033;-61
2022/07/02 05:17:09;;;;;;;7.40;2.75;;;15.80;73.00;;;;;;5051992;28;20044;-59
2022/07/02 05:19:34;;;;;;;4.82;2.97;;;15.90;73.00;;;;;;5045371;28;20030;-60
2022/07/02 05:22:00;;;;;;;34.00;2.75;;;15.90;72.80;;;;;;5046219;28;20022;-59
2022/07/02 05:24:26;;;;;;;4.65;2.92;;;16.00;72.60;;;;;;5050874;28;20021;-59
2022/07/02 05:26:51;;;;;;;8.43;2.92;;;16.00;72.40;;;;;;4992356;28;20029;-61
2022/07/02 05:29:17;;;;;;;11.27;2.78;;;16.10;72.30;;;;;;5045700;28;20022;-59
2022/07/02 05:31:43;;;;;;;2.80;2.50;;;16.10;72.30;;;;;;5042076;28;20033;-60
2022/07/02 05:34:08;;;;;;;9.25;3.25;;;16.20;72.20;;;;;;5044694;28;20042;-59
2022/07/02 05:36:34;;;;;;;8.65;2.92;;;16.30;72.40;;;;;;5041941;28;20097;-59
2022/07/02 05:38:59;;;;;;;7.90;2.70;;;16.30;72.50;;;;;;5054838;28;20037;-59
2022/07/02 05:41:25;;;;;;;3.53;3.00;;;16.40;72.60;;;;;;5057081;28;20456;-60
2022/07/02 05:43:51;;;;;;;6.20;2.75;;;16.50;72.50;;;;;;5045372;28;20045;-61
2022/07/02 05:46:16;;;;;;;8.90;2.80;;;16.60;72.40;;;;;;5046627;28;20057;-59
2022/07/02 05:48:42;;;;;;;5.63;3.08;;;16.70;72.30;;;;;;5030677;28;20033;-60
2022/07/02 05:51:08;;;;;;;3.10;2.58;;;16.70;72.10;;;;;;5044922;28;20026;-59
2022/07/02 05:53:33;;;;;;;8.25;2.72;;;16.80;72.00;;;;;;5050824;28;20057;-60
2022/07/02 05:55:59;;;;;;;4.25;2.67;;;16.90;71.60;;;;;;5043180;28;20030;-60
2022/07/02 05:58:25;;;;;;;2.97;2.53;;;17.00;71.20;;;;;;5054633;28;20041;-60
2022/07/02 06:00:50;;;;;;;2.47;2.13;;;17.10;70.90;;;;;;5045094;28;20093;-60
2022/07/02 06:03:16;;;;;;;3.17;2.40;;;17.10;70.70;;;;;;5045123;28;20037;-60
2022/07/02 06:08:26;;;;;;;4.22;2.15;;;17.30;70.60;;;;;;5035149;28;20110;-59
2022/07/02 06:10:55;;;;;;;4.20;2.65;;;17.30;70.60;;;;;;5041530;28;20061;-59
2022/07/02 06:13:21;;;;;;;5.90;3.97;;;17.40;70.50;;;;;;5051441;28;20028;-59
2022/07/02 06:15:46;;;;;;;9.27;5.75;;;17.50;70.30;;;;;;5045505;28;20037;-60
2022/07/02 06:18:12;;;;;;;9.27;5.82;;;17.50;70.00;;;;;;5048122;28;20060;-59
2022/07/02 06:20:38;;;;;;;6.55;4.72;;;17.60;69.90;;;;;;5044932;28;20048;-59
2022/07/02 06:23:04;;;;;;;5.57;4.40;;;17.60;69.80;;;;;;5040483;28;20025;-59
2022/07/02 06:25:29;;;;;;;7.70;6.45;;;17.70;70.10;;;;;;5042748;28;20029;-60
2022/07/02 06:27:55;;;;;;;7.28;5.55;;;17.70;69.80;;;;;;5035987;28;20041;-59
2022/07/02 06:30:23;;;;;;;10.60;6.63;;;17.80;69.80;;;;;;5050291;28;20030;-59
2022/07/02 06:32:49;;;;;;;12.63;7.18;;;17.90;70.10;;;;;;5044632;28;20021;-59
2022/07/02 06:35:15;;;;;;;13.88;8.98;;;18.00;70.00;;;;;;5049763;28;20143;-60
2022/07/02 06:37:41;;;;;;;14.85;8.85;;;18.00;69.50;;;;;;5045658;28;20040;-60
2022/07/02 06:40:07;;;;;;;13.95;8.75;;;18.10;69.40;;;;;;5040739;28;20033;-61
2022/07/02 06:42:33;;;;;;;14.77;9.85;;;18.20;69.60;;;;;;5041791;28;20034;-60
2022/07/02 06:44:59;;;;;;;15.23;10.20;;;18.20;70.00;;;;;;5046491;28;20025;-60
2022/07/02 06:47:30;;;;;;;16.55;10.88;;;18.30;70.20;;;;;;5050832;28;20029;-59
2022/07/02 06:49:56;;;;;;;11.32;7.82;;;18.60;70.10;;;;;;5049566;28;20477;-58
2022/07/02 06:52:23;;;;;;;7.72;6.18;;;18.70;69.30;;;;;;5043035;28;20064;-61
2022/07/02 06:54:48;;;;;;;7.07;5.30;;;18.90;69.40;;;;;;5048828;28;20048;-59
2022/07/02 06:57:14;;;;;;;7.65;6.22;;;19.10;68.40;;;;;;5052127;28;20030;-60
2022/07/02 06:59:40;;;;;;;10.27;5.75;;;19.20;68.30;;;;;;5048441;28;20030;-59
2022/07/02 07:02:06;;;;;;;5.55;4.03;;;19.30;68.00;;;;;;5041162;28;20037;-60
2022/07/02 07:04:33;;;;;;;6.07;4.00;;;19.50;67.90;;;;;;5042845;28;20029;-59
2022/07/02 07:07:03;;;;;;;4.47;3.53;;;19.60;67.80;;;;;;5047084;28;20021;-60
2022/07/02 07:09:28;;;;;;;6.68;4.97;;;19.80;67.60;;;;;;5049801;28;20476;-61
2022/07/02 07:11:55;;;;;;;5.32;4.40;;;19.90;67.20;;;;;;5050774;28;20041;-59
2022/07/02 07:14:21;;;;;;;2.45;2.17;;;20.10;66.60;;;;;;5047150;28;20095;-59
2022/07/02 07:16:47;;;;;;;2.08;1.80;;;20.20;66.50;;;;;;5054764;28;20036;-60
2022/07/02 07:19:13;;;;;;;1.92;1.60;;;20.30;66.20;;;;;;5047792;28;20029;-61
2022/07/02 07:21:40;;;;;;;2.63;1.92;;;20.50;66.10;;;;;;5044667;28;20095;-60
2022/07/02 07:24:07;;;;;;;1.88;1.75;;;20.60;65.40;;;;;;5045909;28;20029;-60
2022/07/02 07:26:33;;;;;;;1.67;1.58;;;20.70;65.10;;;;;;5048430;28;20476;-60
2022/07/02 07:29:00;;;;;;;1.38;1.27;;;20.80;65.20;;;;;;5047805;28;20060;-60
2022/07/02 07:31:27;;;;;;;3.00;1.10;;;20.90;64.80;;;;;;5047277;28;20025;-59
2022/07/02 07:33:56;;;;;;;1.27;1.17;;;21.10;64.40;;;;;;5048866;28;20110;-59
2022/07/02 07:36:24;;;;;;;1.50;1.30;;;21.20;64.00;;;;;;5054947;28;20051;-60
2022/07/02 07:38:51;;;;;;;1.45;1.10;;;21.30;63.50;;;;;;5058333;28;20059;-59
2022/07/02 07:41:18;;;;;;;1.20;1.10;;;21.40;63.00;;;;;;5050020;28;20453;-59
2022/07/02 07:43:44;;;;;;;0.90;0.85;;;21.50;62.80;;;;;;5055438;28;20032;-60
2022/07/02 07:46:10;;;;;;;0.80;0.80;;;21.60;62.40;;;;;;5047971;28;20043;-61
2022/07/02 07:48:36;;;;;;;1.15;0.68;;;21.70;62.00;;;;;;5046091;28;20116;-60
2022/07/02 07:51:01;;;;;;;1.55;1.30;;;21.80;61.50;;;;;;5033035;28;20026;-61
2022/07/02 07:53:27;;;;;;;1.38;1.00;;;21.90;60.80;;;;;;5049723;28;20021;-59
2022/07/02 07:55:54;;;;;;;1.30;0.90;;;22.00;60.70;;;;;;5044201;28;20069;-62
2022/07/02 07:58:19;;;;;;;1.80;1.00;;;22.20;60.40;;;;;;5047342;28;20029;-61
2022/07/02 08:00:46;;;;;;;1.30;1.00;;;22.20;59.70;;;;;;5042741;28;20106;-60
2022/07/02 08:03:17;;;;;;;1.33;0.98;;;22.30;59.80;;;;;;5041225;28;20170;-60
2022/07/02 08:05:46;;;;;;;2.08;1.38;;;22.40;60.10;;;;;;5044053;28;20361;-60
2022/07/02 08:08:12;;;;;;;1.70;1.13;;;22.50;59.50;;;;;;5038328;28;20050;-60
2022/07/02 08:10:38;;;;;;;1.58;0.90;;;22.50;59.10;;;;;;5042844;28;20460;-60
2022/07/02 08:13:04;;;;;;;1.88;1.25;;;22.60;58.80;;;;;;5046864;28;20068;-59
2022/07/02 08:15:30;;;;;;;1.20;1.10;;;22.70;58.90;;;;;;5045339;28;20052;-60
2022/07/02 08:17:56;;;;;;;2.30;1.40;;;22.70;58.70;;;;;;5045833;28;20022;-59
2022/07/02 08:20:22;;;;;;;2.17;1.05;;;22.80;58.40;;;;;;5037786;28;20029;-60
2022/07/02 08:22:50;;;;;;;3.10;1.02;;;22.90;57.70;;;;;;5051453;28;20040;-60
2022/07/02 08:25:17;;;;;;;1.65;1.02;;;23.00;57.70;;;;;;4960377;28;21119;-60
2022/07/02 08:27:43;;;;;;;2.03;0.82;;;23.10;57.50;;;;;;5034258;28;20041;-60
2022/07/02 08:30:10;;;;;;;1.08;0.77;;;23.10;56.80;;;;;;5047182;28;20069;-60
2022/07/02 08:32:37;;;;;;;1.63;1.00;;;23.20;57.00;;;;;;5044104;28;20029;-60
2022/07/02 08:35:04;;;;;;;1.33;0.90;;;23.20;56.40;;;;;;5045652;28;20044;-61
2022/07/02 08:37:30;;;;;;;1.60;1.10;;;23.30;56.50;;;;;;5044220;28;20021;-60
2022/07/02 08:39:57;;;;;;;1.90;1.52;;;23.40;56.40;;;;;;5055669;28;20037;-60
2022/07/02 08:42:27;;;;;;;1.15;1.02;;;23.40;55.50;;;;;;5035690;28;20054;-60
2022/07/02 08:44:54;;;;;;;2.97;0.90;;;23.50;54.80;;;;;;5044065;28;20059;-59
2022/07/02 08:47:21;;;;;;;3.28;0.60;;;23.50;55.40;;;;;;5044082;28;20017;-60
2022/07/02 08:49:47;;;;;;;2.28;0.70;;;23.60;55.50;;;;;;5042701;28;20044;-60
2022/07/02 08:52:18;;;;;;;1.27;0.60;;;23.70;55.50;;;;;;5038869;28;20017;-62
2022/07/02 08:54:46;;;;;;;1.40;0.80;;;23.80;54.70;;;;;;5037920;28;20037;-61
2022/07/02 08:57:13;;;;;;;0.73;0.60;;;23.80;54.10;;;;;;5036793;28;20064;-58
2022/07/02 08:59:39;;;;;;;1.88;0.75;;;23.90;54.40;;;;;;5037647;28;20025;-58
2022/07/02 09:02:06;;;;;;;1.67;0.80;;;24.00;54.80;;;;;;5038222;28;20094;-59
2022/07/02 09:04:33;;;;;;;1.55;1.00;;;24.10;55.00;;;;;;5038705;28;20037;-60
2022/07/02 09:07:02;;;;;;;2.30;0.85;;;24.20;54.30;;;;;;5047617;28;20033;-61
2022/07/02 09:09:29;;;;;;;0.70;0.70;;;24.20;53.10;;;;;;5039082;28;20030;-61
2022/07/02 09:11:56;;;;;;;1.05;0.60;;;24.30;53.80;;;;;;5043788;28;20443;-59
2022/07/02 09:14:23;;;;;;;3.80;0.90;;;24.40;53.30;;;;;;5046614;28;20041;-60
2022/07/02 09:16:49;;;;;;;4.03;1.15;;;24.40;52.80;;;;;;5042537;28;20113;-59
2022/07/02 09:19:16;;;;;;;1.15;0.82;;;24.50;52.60;;;;;;5047653;28;20052;-59
2022/07/02 09:21:46;;;;;;;5.47;0.80;;;24.50;53.00;;;;;;5044130;28;20030;-59
2022/07/02 09:24:11;;;;;;;1.83;0.90;;;24.50;52.10;;;;;;5047899;28;20029;-60
2022/07/02 09:26:37;;;;;;;1.80;0.52;;;24.50;52.70;;;;;;5046874;28;20077;-59
2022/07/02 09:29:04;;;;;;;2.78;1.00;;;24.50;53.20;;;;;;5037792;28;20041;-58
2022/07/02 09:31:31;;;;;;;1.83;0.63;;;24.60;53.00;;;;;;5039748;28;20029;-60
2022/07/02 09:33:58;;;;;;;1.02;0.75;;;24.70;52.90;;;;;;5035336;28;20052;-59
2022/07/02 09:36:24;;;;;;;1.77;1.13;;;24.70;52.10;;;;;;5044944;28;20029;-60
2022/07/02 09:38:52;;;;;;;1.73;1.23;;;24.90;52.10;;;;;;5043053;28;20032;-60
2022/07/02 09:41:21;;;;;;;1.27;1.02;;;24.90;51.00;;;;;;5042480;28;20103;-60
2022/07/02 09:43:56;;;;;;;3.53;1.00;;;25.00;50.50;;;;;;5031346;28;20036;-59
2022/07/02 09:46:22;;;;;;;1.85;1.23;;;25.00;50.80;;;;;;5037058;28;20017;-59
2022/07/02 09:48:48;;;;;;;3.38;1.75;;;25.00;50.80;;;;;;5044380;28;20030;-60
2022/07/02 09:51:14;;;;;;;2.13;1.67;;;25.00;50.80;;;;;;5035019;28;20036;-60
2022/07/02 09:53:54;;;;;;;1.52;1.05;;;25.00;50.60;;;;;;5042949;28;20036;-59
2022/07/02 09:56:21;;;;;;;2.85;1.65;;;25.00;50.40;;;;;;5043226;28;20419;-59
2022/07/02 09:58:48;;;;;;;1.15;1.05;;;25.10;50.90;;;;;;5043262;28;20040;-59
2022/07/02 10:01:21;;;;;;;0.90;0.70;;;25.20;50.40;;;;;;5036312;28;20025;-60
2022/07/02 10:03:54;;;;;;;0.93;0.63;;;25.20;50.40;;;;;;5039602;28;20083;-60
2022/07/02 10:06:20;;;;;;;3.47;1.45;;;25.30;51.40;;;;;;5040058;28;20025;-59
2022/07/02 10:08:47;;;;;;;1.73;1.33;;;25.40;51.40;;;;;;5039273;28;20088;-60
2022/07/02 10:11:14;;;;;;;1.98;0.88;;;25.50;50.60;;;;;;5041377;28;20041;-60
2022/07/02 10:13:41;;;;;;;0.70;0.38;;;25.50;49.30;;;;;;5038616;28;20038;-59
2022/07/02 10:16:17;;;;;;;1.33;0.60;;;25.60;49.00;;;;;;5034615;28;20034;-59
2022/07/02 10:18:43;;;;;;;0.45;0.40;;;25.70;47.90;;;;;;5048720;28;20049;-60
2022/07/02 10:21:14;;;;;;;0.63;0.60;;;25.80;48.40;;;;;;5044236;28;20081;-59
2022/07/02 10:23:45;;;;;;;4.70;0.50;;;25.80;48.10;;;;;;5046631;28;20085;-60
2022/07/02 10:26:12;;;;;;;0.60;0.50;;;25.90;48.00;;;;;;5036314;28;20061;-60
2022/07/02 10:28:38;;;;;;;0.88;0.43;;;26.00;47.60;;;;;;5052840;28;20075;-60
2022/07/02 10:31:06;;;;;;;4.88;1.10;;;26.10;47.40;;;;;;5052479;28;20093;-61
2022/07/02 10:33:32;;;;;;;0.90;0.52;;;26.10;47.20;;;;;;5047094;28;20033;-60
2022/07/02 10:36:03;;;;;;;5.82;0.73;;;26.20;47.20;;;;;;5043628;28;20275;-59
2022/07/02 10:38:37;;;;;;;9.45;1.70;;;26.20;45.80;;;;;;5044416;28;20060;-60
2022/07/02 10:41:03;;;;;;;1.90;1.00;;;26.30;47.10;;;;;;5040782;28;20378;-61
2022/07/02 10:43:33;;;;;;;0.80;0.50;;;26.40;47.50;;;;;;5048688;28;20025;-60
2022/07/02 10:46:06;;;;;;;1.20;0.60;;;26.40;46.60;;;;;;5041929;28;20033;-60
2022/07/02 10:48:36;;;;;;;1.73;0.60;;;26.50;47.00;;;;;;5051874;28;20025;-61
2022/07/02 10:51:02;;;;;;;3.72;0.75;;;26.60;47.30;;;;;;5030902;28;20041;-60
2022/07/02 10:53:29;;;;;;;0.68;0.50;;;26.70;47.80;;;;;;5044326;28;20032;-60
2022/07/02 10:55:58;;;;;;;1.48;0.80;;;26.80;47.40;;;;;;5045621;28;20099;-60
2022/07/02 10:58:29;;;;;;;1.70;0.70;;;26.80;47.80;;;;;;5046118;28;20072;-59
2022/07/02 11:00:56;;;;;;;1.17;0.60;;;26.90;47.50;;;;;;5038641;28;20440;-60
2022/07/02 11:03:24;;;;;;;2.38;0.80;;;27.00;46.90;;;;;;5041258;28;20047;-60
2022/07/02 11:06:20;;;;;;;9.30;1.27;;;27.10;46.30;;;;;;5051938;28;20033;-60
2022/07/02 11:08:51;;;;;;;57.80;6.60;;;27.10;45.10;;;;;;5037604;28;20065;-59
2022/07/02 11:11:35;;;;;;;19.52;3.30;;;27.20;46.70;;;;;;5034317;28;20159;-61
2022/07/02 11:14:05;;;;;;;9.88;0.93;;;27.20;46.20;;;;;;5045114;28;20091;-60
2022/07/02 11:16:51;;;;;;;8.27;0.60;;;27.30;45.80;;;;;;5049359;28;20064;-60
2022/07/02 11:19:30;;;;;;;3.75;0.70;;;27.40;46.00;;;;;;5047470;28;20061;-60
2022/07/02 11:22:01;;;;;;;4.43;0.70;;;27.50;45.90;;;;;;5043467;28;20032;-60
2022/07/02 11:24:31;;;;;;;0.68;0.30;;;27.60;45.70;;;;;;5045418;28;20096;-61
2022/07/02 11:27:00;;;;;;;0.82;0.40;;;27.70;45.40;;;;;;5035021;28;20053;-60
2022/07/02 11:29:26;;;;;;;1.38;1.00;;;27.70;45.40;;;;;;5040896;28;20029;-61
2022/07/02 11:31:55;;;;;;;1.85;0.98;;;27.70;45.40;;;;;;5044447;28;20067;-61
2022/07/02 11:34:26;;;;;;;0.93;0.60;;;27.80;43.80;;;;;;5039077;28;20097;-61
2022/07/02 11:36:52;;;;;;;3.05;0.70;;;27.90;43.80;;;;;;5038188;28;20507;-61
2022/07/02 11:39:22;;;;;;;2.38;1.70;;;27.90;43.50;;;;;;5041754;28;20036;-61
2022/07/02 11:41:49;;;;;;;1.10;0.75;;;27.90;42.60;;;;;;5039854;28;20038;-60
2022/07/02 11:44:21;;;;;;;1.00;0.50;;;28.00;42.70;;;;;;5050634;28;20508;-61
2022/07/02 11:46:52;;;;;;;2.45;1.10;;;28.00;41.90;;;;;;5041949;28;20037;-59
2022/07/02 11:49:21;;;;;;;1.20;0.60;;;28.00;42.50;;;;;;5045923;28;20040;-61
2022/07/02 11:51:47;;;;;;;3.35;0.52;;;28.10;42.00;;;;;;5046105;28;20447;-61
2022/07/02 11:54:14;;;;;;;1.88;1.08;;;28.10;42.30;;;;;;5050430;28;20048;-60
2022/07/02 11:56:41;;;;;;;0.85;0.57;;;28.20;42.50;;;;;;5043728;28;20033;-60
2022/07/02 11:59:09;;;;;;;0.70;0.40;;;28.20;42.20;;;;;;5044324;28;20039;-60
2022/07/02 12:01:35;;;;;;;0.82;0.52;;;28.30;42.30;;;;;;5052647;28;20029;-61
2022/07/02 12:04:03;;;;;;;3.00;0.30;;;28.30;41.80;;;;;;5032959;28;20441;-60
2022/07/02 12:06:39;;;;;;;1.17;0.32;;;28.40;40.00;;;;;;5034541;28;20404;-61
2022/07/02 12:09:07;;;;;;;2.25;0.40;;;28.50;39.00;;;;;;5043065;28;20433;-59
2022/07/02 12:11:38;;;;;;;1.20;0.40;;;28.50;39.80;;;;;;5047372;28;20025;-60
2022/07/02 12:14:06;;;;;;;1.73;0.50;;;28.50;39.70;;;;;;5042313;28;20383;-60
2022/07/02 12:16:33;;;;;;;0.90;0.40;;;28.60;40.10;;;;;;5048542;28;20034;-59
2022/07/02 12:19:05;;;;;;;0.40;0.40;;;28.60;40.20;;;;;;5042336;28;20025;-62
2022/07/02 12:21:49;;;;;;;1.05;0.50;;;28.70;38.90;;;;;;5045984;28;20041;-61
2022/07/02 12:24:33;;;;;;;0.47;0.30;;;28.80;38.50;;;;;;5044990;28;20044;-61
2022/07/02 12:27:07;;;;;;;0.63;0.35;;;28.90;38.70;;;;;;5049702;28;20409;-61
2022/07/02 12:29:54;;;;;;;2.15;0.60;;;28.90;39.20;;;;;;5047571;28;20036;-60
2022/07/02 12:32:32;;;;;;;1.25;0.30;;;29.00;38.50;;;;;;5049801;28;20029;-60
2022/07/02 12:35:00;;;;;;;0.77;0.70;;;29.10;37.70;;;;;;5046654;28;20050;-62
2022/07/02 12:37:36;;;;;;;0.32;0.32;;;29.20;39.20;;;;;;5049947;28;20029;-60
2022/07/02 12:40:07;;;;;;;1.15;0.40;;;29.20;38.40;;;;;;5043067;28;20852;-59
2022/07/02 12:42:47;;;;;;;0.70;0.30;;;29.20;38.20;;;;;;5045668;28;20025;-60
2022/07/02 12:45:42;;;;;;;0.52;0.30;;;29.30;37.40;;;;;;5044427;28;20030;-60
2022/07/02 12:48:11;;;;;;;1.85;0.38;;;29.30;32.30;;;;;;5049510;28;20040;-61
2022/07/02 12:50:40;;;;;;;1.02;0.77;;;29.40;37.80;;;;;;5043432;28;20052;-60
2022/07/02 12:53:20;;;;;;;1.45;0.57;;;29.40;37.40;;;;;;5041756;28;20022;-59